createdAt,value
2022-10-23T16:48:02.260Z,100617.38
2022-10-23T16:51:07.979Z,100606.75
2022-10-23T16:54:11.547Z,100602.22
2022-10-23T16:57:15.150Z,100603.56
2022-10-23T17:00:21.960Z,100597.88
2022-10-23T17:03:26.998Z,100589.47
2022-10-23T17:06:33.451Z,100584.88
2022-10-23T17:09:38.400Z,100582.59
2022-10-23T17:12:41.993Z,100568.34
2022-10-23T17:15:45.597Z,100561.88
2022-10-23T17:18:51.270Z,100571.16
2022-10-23T17:21:56.327Z,100575.72
2022-10-23T17:24:59.894Z,100573.47
2022-10-23T17:28:03.494Z,100574.53
2022-10-23T17:31:13.350Z,100575.72
2022-10-23T17:34:20.439Z,100564.25
2022-10-23T17:37:24.059Z,100549.47
2022-10-23T17:40:30.809Z,100537.31
2022-10-23T17:43:35.181Z,100533.44
2022-10-23T17:46:39.193Z,100530.72
2022-10-23T17:49:46.079Z,100527.63
2022-10-23T17:52:49.866Z,100518.25
2022-10-23T17:55:53.440Z,100528.56
2022-10-23T17:59:00.962Z,100519.63
2022-10-23T18:02:04.637Z,100516.25
2022-10-23T18:05:11.224Z,100506.66
2022-10-23T18:08:15.822Z,100512.47
2022-10-23T18:11:22.438Z,100516.09
2022-10-23T18:14:28.526Z,100516.09
2022-10-23T18:17:33.642Z,100509.38
2022-10-23T18:20:41.957Z,100521.72
2022-10-23T18:23:46.118Z,100524.19
2022-10-23T18:26:49.919Z,100529.66
2022-10-23T18:29:54.094Z,100533.22
2022-10-23T18:32:58.154Z,100531.97
2022-10-23T18:36:03.118Z,100522.59
2022-10-23T18:39:09.327Z,100526.59
2022-10-23T18:42:12.893Z,100535.88
2022-10-23T18:45:16.884Z,100541.94
2022-10-23T18:48:20.454Z,100556.63
2022-10-23T18:51:28.053Z,100557.84
2022-10-23T18:54:31.859Z,100558.81
2022-10-23T18:57:37.399Z,100551.97
2022-10-23T19:00:42.008Z,100546.44
2022-10-23T19:03:45.684Z,100537.53
2022-10-23T19:06:51.413Z,100544.22
2022-10-23T19:09:56.813Z,100539.41
2022-10-23T19:13:00.388Z,100552.31
2022-10-23T19:16:05.287Z,100546.28
2022-10-23T19:19:14.016Z,100527.06
2022-10-23T19:22:19.369Z,100532.84
2022-10-23T19:25:26.282Z,100541.50
2022-10-23T19:28:32.968Z,100537.91
2022-10-23T19:31:37.886Z,100533.88
2022-10-23T19:34:41.534Z,100535.72
2022-10-23T19:37:47.117Z,100536.22
2022-10-23T19:40:50.748Z,100538.22
2022-10-23T19:43:54.358Z,100531.22
2022-10-23T19:46:57.968Z,100523.84
2022-10-23T19:50:01.647Z,100533.88
2022-10-23T19:53:06.720Z,100528.00
2022-10-23T19:56:12.475Z,100536.53
2022-10-23T19:59:16.134Z,100528.50
2022-10-23T20:02:21.087Z,100535.34
2022-10-23T20:05:24.936Z,100534.41
2022-10-23T20:08:32.750Z,100545.56
2022-10-23T20:11:40.509Z,100553.34
2022-10-23T20:14:44.284Z,100542.88
2022-10-23T20:17:47.845Z,100554.97
2022-10-23T20:20:51.512Z,100552.94
2022-10-23T20:23:58.329Z,100545.72
2022-10-23T20:27:01.966Z,100547.22
2022-10-23T20:30:06.500Z,100535.78
2022-10-23T20:33:10.451Z,100537.00
2022-10-23T20:36:24.774Z,100550.19
2022-10-23T20:39:29.991Z,100542.63
2022-10-23T20:42:33.572Z,100536.63
2022-10-23T20:45:37.160Z,100530.56
2022-10-23T20:48:42.907Z,100537.50
2022-10-23T20:51:54.807Z,100525.00
2022-10-23T20:55:00.485Z,100527.34
2022-10-23T20:58:04.974Z,100527.75
